Logo AVAMET
Benvolgut visitant, si us plau, ingressa Recuperar contrasenya

Torrevella Acequión

Dades diàries. Acumulats / Últims 30 dies disponibles

Data Temperatura (°C) Humitat rel. (%) Pressió rel. (hPa) Vent (km/h) Precipitació
Mínima Mitjana Màxima Amplitud
tèrmica
Mínima Mitjana Màxima Mínima Mitjana Màxima Predom. Mitjana Ràfega
màxima
Total
(mm)
Índex-n
Mínima Mitjana Màxima Mínima Mitjana Màxima n
0 a 1
P0 max
mm 5'
Dades mensuals acumulades fins l'últim dia disponible
01/2020 6,6 8,2 9,8 12,0 14,1 15,9 19,7 13,1 40 72 92 1.021 1.028 1.033   4,8 31,0 2,2
Dades anuals acumulades fins l'últim dia disponible
2020 6,6 8,2 9,8 12,0 14,1 15,9 19,7 13,1 40 72 92 1.021 1.028 1.033   4,8 31,0 2,2
Últims 30 dies disponibles
17-01-2020 8,7     14,2     19,7 11,0 40 61 82 1.028 1.030 1.032 16,0 0,0
16-01-2020 9,8     13,2     16,6 6,8 48 65 82 1.026 1.028 1.029 16,0 0,0
15-01-2020 7,2     11,7     16,1 8,9 51 67 83 1.023 1.026 1.028 19,0 0,0
14-01-2020 7,1     11,4     15,7 8,6 49 69 89 1.021 1.023 1.024 21,0 0,0
13-01-2020 6,6     10,9     15,3 8,7 65 78 90 1.023 1.027 1.030 27,0 0,0
12-01-2020 7,2     11,3     15,5 8,3 42 66 89 1.028 1.030 1.031 23,0 0,0
11-01-2020 8,9     12,2     15,5 6,6 56 73 89 1.027 1.029 1.031 23,0 0,8
10-01-2020 9,1     12,4     15,8 6,7 63 76 89 1.022 1.025 1.028 31,0 1,0
09-01-2020 9,7     12,8     15,9 6,2 62 77 91 1.025 1.028 1.030 16,0 0,0
08-01-2020 7,3     11,0     14,7 7,4 63 78 92 1.027 1.029 1.030 21,0 0,2
01-01-2020 8,1     10,7     14,1 6,0 76 87 91 1.031 1.032 1.033 OSO 4,8 17,7 0,2
31-12-2019 7,8     11,0     15,6 7,8 71 85 91 1.031 1.032 1.034 OSO 3,5 17,7 0,0
30-12-2019 9,0     11,7     15,7 6,7 62 84 93 1.031 1.032 1.034 OSO 3,6 14,5 0,2
29-12-2019 9,0     11,7     16,6 7,6 68 86 95 1.030 1.031 1.034 OSO 4,1 17,7 0,0
28-12-2019 9,3     12,0     15,3 6,0 76 89 95 1.028 1.030 1.032 SO 3,5 16,1 0,2
27-12-2019 10,6     13,5     18,3 7,7 69 83 92 1.028 1.029 1.030 OSO 3,4 12,9 0,0
26-12-2019 12,9     16,4     23,7 10,8 40 65 92 1.021 1.024 1.029 OSO 4,5 22,5 0,0
25-12-2019 11,1     15,8     20,5 9,4 50 68 81 1.023 1.024 1.026 OSO 3,2 12,9 0,0
24-12-2019 12,1     16,3     22,4 10,3 50 67 77 1.025 1.027 1.029 OSO 4,8 22,5 0,0
23-12-2019 13,6     16,1     20,0 6,4 50 65 80 1.021 1.025 1.028 O 4,9 24,1 0,0
22-12-2019 16,5     19,2     23,2 6,7 33 47 61 1.010 1.016 1.021 SO 8,4 35,4 0,0
21-12-2019 16,2     18,3     21,8 5,6 44 79 89 1.004 1.006 1.010 SSO 11,5 40,2 0,0
20-12-2019 15,6     17,5     18,8 3,2 67 80 88 1.003 1.006 1.011 SSO 17,8 57,9 0,0
19-12-2019 8,8     12,1     15,9 7,1 69 76 85 1.011 1.016 1.019 OSO 3,2 24,1 0,0
18-12-2019 10,4     13,5     17,6 7,2 46 65 76 1.013 1.017 1.020 O 9,0 32,2 0,0
17-12-2019 11,8     13,7     16,7 4,9 72 84 93 1.000 1.005 1.013 OSO 3,7 22,5 0,0
16-12-2019 9,9     12,3     15,4 5,5 79 87 93 1.001 1.007 1.013 O 3,2 14,5 0,0
15-12-2019 11,4     13,6     17,5 6,1 54 72 83 1.013 1.015 1.017 OSO 5,6 20,9 0,0
14-12-2019 12,1     16,1     20,7 8,6 52 66 84 1.015 1.016 1.018 SO 6,6 33,8 0,0
13-12-2019 14,1     17,3     20,0 5,9 48 60 68 1.011 1.013 1.016 O 11,0 51,5 0,0
Últims 13 mesos disponibles
12/2019 7,8 11,5 16,5 14,4 13,2 18,2 23,7 15,9 47 74 89 1.005 1.019 1.032 OSO 6,7 59,5 99,4
11/2019 8,1 13,0 20,9 16,1 15,4 19,9 28,2 20,1 48 61 90 1.001 1.012 1.019 OSO 7,7 59,5 14,4
10/2019 11,8 17,7 23,3 20,9 16,7 24,6 31,0 19,2 52 74 90 1.009 1.016 1.022 OSO 5,3 43,5 46,8
09/2019 16,7 21,6 24,6 24,2 22,8 27,0 30,4 13,7 54 80 90 1.010 1.017 1.021 SO 7,0 49,9 166,0
08/2019 21,4 24,0 26,4 26,5 27,6 29,1 35,7 14,3 65 79 87 1.010 1.015 1.019 SSE 6,6 43,5 32,4
07/2019 22,4 24,1 26,0 26,5 26,6 29,6 35,8 13,4 54 75 85 1.006 1.013 1.019 S 7,2 53,1 0,6
06/2019 16,3 20,0 24,3 22,7 21,7 25,7 33,1 16,8 55 73 86 1.009 1.015 1.022 S 7,6 46,7 0,0
05/2019 13,4 16,6 19,8 19,4 18,3 22,3 28,7 15,3 49 74 84 1.006 1.015 1.025 S 7,2 46,7 2,4
04/2019 10,3 13,2 16,1 16,0 15,6 19,6 25,8 15,5 51 72 93 1.000 1.013 1.025 OSO 7,7 66,0 205,0
03/2019 7,9 11,0 14,0 14,6 14,2 18,3 25,7 17,8 54 71 89 1.011 1.022 1.030 S 6,5 48,3 27,2
02/2019 5,8 9,5 12,8 13,1 13,9 17,1 22,0 16,2 36 65 83 997 1.023 1.032 OSO 7,2 64,4 3,6
01/2019 4,6 8,6 13,2 12,1 12,4 16,7 22,3 17,7 44 63 84 1.005 1.019 1.031 O 5,9 48,3 2,0
12/2018 7,8 10,7 14,7 13,9 14,8 18,4 23,8 16,0 54 72 85 1.010 1.025 1.031 OSO 5,4 61,2 7,4
Tots els anys disponibles
2019 4,6 16,1 26,4 19,1 12,4 22,5 35,8 31,2 36 72 93 997 1.016 1.032 S 6,8 66,0 599,8
2018 4,4 16,0 27,9 19,1 12,0 22,4 33,9 29,5 42 69 90 994 1.016 1.033 OSO 1,4 66,0 386,0
2017 2,0 16,5 28,1 19,6 6,8 22,6 34,5 32,5 23 64 87 1.000 1.019 1.036 SSO 0,1 61,0 152,8
2016 5,3 16,7 26,0 19,5 13,4 22,2 36,6 31,3 20 62 86 998 1.018 1.042 66,0 200,3
2015 4,0 16,5 23,5 19,4 22,5 22,3 36,6 32,6 36 63 73 1.015 1.019 1.029 83,0 170,0
2014 5,0 16,4 26,0 19,1 11,6 21,8 33,4 28,4 16 48 85 993 1.016 1.032 69,0 198,2
2013 4,6 15,5 20,0 18,3 19,8 21,2 32,5 27,9 35 48 58 1.008 1.016 1.024 71,0 217,8
2012 1,3 15,4 23,0 18,3 20,5 21,1 33,3 32,0 47 60 67 1.014 1.017 1.021 60,0 305,2
2011 2,4 15,9 25,4 18,7 10,5 21,5 35,1 32,7 34 68 92 57,0 203,8
Temperatura (°C)
Humitat relativa (%)
Velocitat del vent i ràfega màxima (km/h)
Direcció del vent (°)
Pressió (hPa)
Precipitació (mm)
Nota sobre les dades: s'avisa a l'usuari de la provisionalitat i no oficialitat d'aquestes dades
Logo AVAMET blanc
Web allotjada a Sollutia
Llicència de Creative CommonsLa web d'AVAMET i els seus continguts estan subjectes a una llicència de
Reconeixement - No Comercial - Compartir igual
Últimes estacions: Xixona - Els Ameradors (Soci), Agres - El Tossal (Soci), Xàbia - Bevenguts (MeteoXàbia), Llíria (Aj. Soci/Inforatge), Orihuela - Lo Capitán, Cox & Guardamar del Segura - horta (Meteorihuela), l'Alcúdia - Carriona & el Real de Gandia (Inforatge), Benicàssim - les Vil·les (Soci),  l'Alfàs del Pi - l'Albir (Soci), - - -